sensor_id;sensor_type;location;lat;lon;timestamp;P1;durP1;ratioP1;P2;durP2;ratioP2
56680;SDS011;42558;52.388;13.390;2023-08-31T00:00:55;10.64;;;7.98;;
56680;SDS011;42558;52.388;13.390;2023-08-31T00:03:23;11.59;;;7.98;;
56680;SDS011;42558;52.388;13.390;2023-08-31T00:05:52;10.45;;;7.41;;
56680;SDS011;42558;52.388;13.390;2023-08-31T00:08:20;12.35;;;8.17;;
56680;SDS011;42558;52.388;13.390;2023-08-31T00:10:59;10.64;;;7.79;;
56680;SDS011;42558;52.388;13.390;2023-08-31T00:13:30;9.31;;;7.60;;
56680;SDS011;42558;52.388;13.390;2023-08-31T00:15:58;9.69;;;6.84;;
56680;SDS011;42558;52.388;13.390;2023-08-31T00:18:27;11.02;;;7.03;;
56680;SDS011;42558;52.388;13.390;2023-08-31T00:20:55;10.83;;;8.17;;
56680;SDS011;42558;52.388;13.390;2023-08-31T00:23:23;12.16;;;7.79;;
56680;SDS011;42558;52.388;13.390;2023-08-31T00:25:52;10.64;;;7.98;;
56680;SDS011;42558;52.388;13.390;2023-08-31T00:28:20;10.64;;;7.41;;
56680;SDS011;42558;52.388;13.390;2023-08-31T00:30:49;10.45;;;7.79;;
56680;SDS011;42558;52.388;13.390;2023-08-31T00:33:17;11.97;;;7.79;;
56680;SDS011;42558;52.388;13.390;2023-08-31T00:35:46;11.59;;;7.60;;
56680;SDS011;42558;52.388;13.390;2023-08-31T00:38:15;11.21;;;8.55;;
56680;SDS011;42558;52.388;13.390;2023-08-31T00:40:43;9.69;;;7.41;;
56680;SDS011;42558;52.388;13.390;2023-08-31T00:43:16;9.31;;;7.41;;
56680;SDS011;42558;52.388;13.390;2023-08-31T00:45:49;11.21;;;7.41;;
56680;SDS011;42558;52.388;13.390;2023-08-31T00:48:19;11.40;;;7.60;;
56680;SDS011;42558;52.388;13.390;2023-08-31T00:50:50;12.35;;;7.60;;
56680;SDS011;42558;52.388;13.390;2023-08-31T00:53:21;11.21;;;7.98;;
56680;SDS011;42558;52.388;13.390;2023-08-31T00:55:52;11.21;;;6.46;;
56680;SDS011;42558;52.388;13.390;2023-08-31T00:58:21;8.74;;;6.27;;
56680;SDS011;42558;52.388;13.390;2023-08-31T01:06:55;10.64;;;7.41;;
56680;SDS011;42558;52.388;13.390;2023-08-31T01:15:46;10.64;;;8.36;;
56680;SDS011;42558;52.388;13.390;2023-08-31T01:18:25;9.31;;;6.84;;
56680;SDS011;42558;52.388;13.390;2023-08-31T01:21:12;11.97;;;7.22;;
56680;SDS011;42558;52.388;13.390;2023-08-31T01:23:52;10.26;;;6.65;;
56680;SDS011;42558;52.388;13.390;2023-08-31T01:26:26;10.26;;;6.08;;
56680;SDS011;42558;52.388;13.390;2023-08-31T01:28:57;9.50;;;6.46;;
56680;SDS011;42558;52.388;13.390;2023-08-31T01:31:28;7.98;;;5.51;;
56680;SDS011;42558;52.388;13.390;2023-08-31T01:33:58;19.19;;;7.22;;
56680;SDS011;42558;52.388;13.390;2023-08-31T01:36:29;8.93;;;5.13;;
56680;SDS011;42558;52.388;13.390;2023-08-31T01:39:13;10.07;;;5.51;;
56680;SDS011;42558;52.388;13.390;2023-08-31T01:41:53;8.74;;;5.51;;
56680;SDS011;42558;52.388;13.390;2023-08-31T01:44:28;12.35;;;5.89;;
56680;SDS011;42558;52.388;13.390;2023-08-31T01:47:06;9.31;;;5.89;;
56680;SDS011;42558;52.388;13.390;2023-08-31T01:49:40;10.64;;;6.08;;
56680;SDS011;42558;52.388;13.390;2023-08-31T01:52:08;12.16;;;6.46;;
56680;SDS011;42558;52.388;13.390;2023-08-31T01:54:36;10.07;;;6.46;;
56680;SDS011;42558;52.388;13.390;2023-08-31T01:57:08;10.45;;;5.51;;
56680;SDS011;42558;52.388;13.390;2023-08-31T01:59:36;9.69;;;6.46;;
56680;SDS011;42558;52.388;13.390;2023-08-31T02:02:04;10.45;;;6.27;;
56680;SDS011;42558;52.388;13.390;2023-08-31T02:04:33;11.02;;;7.22;;
56680;SDS011;42558;52.388;13.390;2023-08-31T02:07:01;10.26;;;6.65;;
56680;SDS011;42558;52.388;13.390;2023-08-31T02:09:30;11.21;;;6.08;;
56680;SDS011;42558;52.388;13.390;2023-08-31T02:11:58;10.45;;;6.08;;
56680;SDS011;42558;52.388;13.390;2023-08-31T02:14:29;9.12;;;5.89;;
56680;SDS011;42558;52.388;13.390;2023-08-31T02:16:59;10.07;;;5.89;;
56680;SDS011;42558;52.388;13.390;2023-08-31T02:19:28;8.55;;;4.56;;
56680;SDS011;42558;52.388;13.390;2023-08-31T02:21:56;9.69;;;4.75;;
56680;SDS011;42558;52.388;13.390;2023-08-31T02:24:24;10.07;;;5.32;;
56680;SDS011;42558;52.388;13.390;2023-08-31T02:26:53;8.74;;;4.37;;
56680;SDS011;42558;52.388;13.390;2023-08-31T02:29:22;8.74;;;4.37;;
56680;SDS011;42558;52.388;13.390;2023-08-31T02:31:50;8.74;;;4.37;;
56680;SDS011;42558;52.388;13.390;2023-08-31T02:34:18;8.17;;;4.56;;
56680;SDS011;42558;52.388;13.390;2023-08-31T02:36:47;7.60;;;4.56;;
56680;SDS011;42558;52.388;13.390;2023-08-31T02:39:15;8.55;;;4.75;;
56680;SDS011;42558;52.388;13.390;2023-08-31T02:41:43;9.12;;;4.37;;
56680;SDS011;42558;52.388;13.390;2023-08-31T02:44:12;10.64;;;4.37;;
56680;SDS011;42558;52.388;13.390;2023-08-31T02:46:40;8.74;;;3.99;;
56680;SDS011;42558;52.388;13.390;2023-08-31T02:49:09;9.31;;;4.37;;
56680;SDS011;42558;52.388;13.390;2023-08-31T02:51:37;9.88;;;4.94;;
56680;SDS011;42558;52.388;13.390;2023-08-31T02:54:06;8.74;;;4.18;;
56680;SDS011;42558;52.388;13.390;2023-08-31T02:56:34;7.79;;;4.18;;
56680;SDS011;42558;52.388;13.390;2023-08-31T02:59:02;8.55;;;4.56;;
56680;SDS011;42558;52.388;13.390;2023-08-31T03:01:31;7.60;;;3.99;;
56680;SDS011;42558;52.388;13.390;2023-08-31T03:03:59;9.12;;;4.37;;
56680;SDS011;42558;52.388;13.390;2023-08-31T03:06:27;8.55;;;4.75;;
56680;SDS011;42558;52.388;13.390;2023-08-31T03:08:56;8.17;;;3.99;;
56680;SDS011;42558;52.388;13.390;2023-08-31T03:11:24;7.60;;;3.80;;
56680;SDS011;42558;52.388;13.390;2023-08-31T03:13:53;8.17;;;3.80;;
56680;SDS011;42558;52.388;13.390;2023-08-31T03:16:21;8.17;;;4.18;;
56680;SDS011;42558;52.388;13.390;2023-08-31T03:18:50;8.17;;;4.18;;
56680;SDS011;42558;52.388;13.390;2023-08-31T03:21:18;7.60;;;4.18;;
56680;SDS011;42558;52.388;13.390;2023-08-31T03:23:46;9.69;;;3.99;;
56680;SDS011;42558;52.388;13.390;2023-08-31T03:26:15;10.07;;;4.37;;
56680;SDS011;42558;52.388;13.390;2023-08-31T03:28:43;8.93;;;4.75;;
56680;SDS011;42558;52.388;13.390;2023-08-31T03:31:12;8.74;;;4.94;;
56680;SDS011;42558;52.388;13.390;2023-08-31T03:33:41;8.93;;;4.56;;
56680;SDS011;42558;52.388;13.390;2023-08-31T03:36:09;9.69;;;4.94;;
56680;SDS011;42558;52.388;13.390;2023-08-31T03:38:37;10.45;;;5.70;;
56680;SDS011;42558;52.388;13.390;2023-08-31T03:41:06;11.78;;;5.32;;
56680;SDS011;42558;52.388;13.390;2023-08-31T03:43:34;9.50;;;5.51;;
56680;SDS011;42558;52.388;13.390;2023-08-31T03:46:03;10.07;;;5.13;;
56680;SDS011;42558;52.388;13.390;2023-08-31T03:48:31;9.88;;;5.13;;
56680;SDS011;42558;52.388;13.390;2023-08-31T03:51:00;8.36;;;5.32;;
56680;SDS011;42558;52.388;13.390;2023-08-31T03:53:28;7.98;;;4.37;;
56680;SDS011;42558;52.388;13.390;2023-08-31T03:55:56;9.31;;;5.32;;
56680;SDS011;42558;52.388;13.390;2023-08-31T03:58:25;7.98;;;4.37;;
56680;SDS011;42558;52.388;13.390;2023-08-31T04:00:53;8.74;;;4.75;;
56680;SDS011;42558;52.388;13.390;2023-08-31T04:03:22;7.79;;;4.37;;
56680;SDS011;42558;52.388;13.390;2023-08-31T04:05:54;8.74;;;4.56;;
56680;SDS011;42558;52.388;13.390;2023-08-31T04:08:25;7.60;;;4.37;;
56680;SDS011;42558;52.388;13.390;2023-08-31T04:10:55;7.79;;;4.56;;
56680;SDS011;42558;52.388;13.390;2023-08-31T04:13:26;8.93;;;4.56;;
56680;SDS011;42558;52.388;13.390;2023-08-31T04:15:55;9.31;;;4.94;;
56680;SDS011;42558;52.388;13.390;2023-08-31T04:18:25;8.93;;;4.18;;
56680;SDS011;42558;52.388;13.390;2023-08-31T04:20:55;10.26;;;4.94;;
56680;SDS011;42558;52.388;13.390;2023-08-31T04:23:29;8.74;;;4.94;;
56680;SDS011;42558;52.388;13.390;2023-08-31T04:25:59;10.26;;;5.32;;
56680;SDS011;42558;52.388;13.390;2023-08-31T04:28:29;8.74;;;5.51;;
56680;SDS011;42558;52.388;13.390;2023-08-31T04:30:59;9.12;;;4.94;;
56680;SDS011;42558;52.388;13.390;2023-08-31T04:33:29;10.26;;;4.37;;
56680;SDS011;42558;52.388;13.390;2023-08-31T04:35:58;9.69;;;5.51;;
56680;SDS011;42558;52.388;13.390;2023-08-31T04:38:28;8.55;;;5.51;;
56680;SDS011;42558;52.388;13.390;2023-08-31T04:40:59;11.02;;;6.27;;
56680;SDS011;42558;52.388;13.390;2023-08-31T04:43:30;8.55;;;5.32;;
56680;SDS011;42558;52.388;13.390;2023-08-31T04:46:01;10.07;;;5.51;;
56680;SDS011;42558;52.388;13.390;2023-08-31T04:48:33;10.07;;;5.89;;
56680;SDS011;42558;52.388;13.390;2023-08-31T04:51:02;11.21;;;5.70;;
56680;SDS011;42558;52.388;13.390;2023-08-31T04:53:33;8.93;;;5.51;;
56680;SDS011;42558;52.388;13.390;2023-08-31T04:56:03;10.26;;;6.27;;
56680;SDS011;42558;52.388;13.390;2023-08-31T04:58:33;14.63;;;6.46;;
56680;SDS011;42558;52.388;13.390;2023-08-31T05:01:03;9.12;;;5.51;;
56680;SDS011;42558;52.388;13.390;2023-08-31T05:03:33;10.83;;;5.51;;
56680;SDS011;42558;52.388;13.390;2023-08-31T05:06:03;12.16;;;6.65;;
56680;SDS011;42558;52.388;13.390;2023-08-31T05:08:34;10.45;;;6.27;;
56680;SDS011;42558;52.388;13.390;2023-08-31T05:11:04;11.59;;;6.27;;
56680;SDS011;42558;52.388;13.390;2023-08-31T05:13:34;11.21;;;7.41;;
56680;SDS011;42558;52.388;13.390;2023-08-31T05:16:04;12.54;;;6.84;;
56680;SDS011;42558;52.388;13.390;2023-08-31T05:18:34;10.64;;;6.46;;
56680;SDS011;42558;52.388;13.390;2023-08-31T05:21:05;12.16;;;6.84;;
56680;SDS011;42558;52.388;13.390;2023-08-31T05:23:35;13.68;;;8.17;;
56680;SDS011;42558;52.388;13.390;2023-08-31T05:26:05;13.30;;;7.03;;
56680;SDS011;42558;52.388;13.390;2023-08-31T05:28:35;13.87;;;6.84;;
56680;SDS011;42558;52.388;13.390;2023-08-31T05:31:05;12.73;;;7.22;;
56680;SDS011;42558;52.388;13.390;2023-08-31T05:33:35;12.16;;;6.65;;
56680;SDS011;42558;52.388;13.390;2023-08-31T05:36:06;12.54;;;7.41;;
56680;SDS011;42558;52.388;13.390;2023-08-31T05:38:36;13.68;;;7.79;;
56680;SDS011;42558;52.388;13.390;2023-08-31T05:41:07;14.44;;;8.55;;
56680;SDS011;42558;52.388;13.390;2023-08-31T05:43:37;12.92;;;7.79;;
56680;SDS011;42558;52.388;13.390;2023-08-31T05:46:10;14.82;;;8.55;;
56680;SDS011;42558;52.388;13.390;2023-08-31T05:48:40;14.44;;;8.74;;
56680;SDS011;42558;52.388;13.390;2023-08-31T05:51:10;14.82;;;9.12;;
56680;SDS011;42558;52.388;13.390;2023-08-31T05:53:40;15.20;;;8.93;;
56680;SDS011;42558;52.388;13.390;2023-08-31T05:56:10;14.44;;;9.69;;
56680;SDS011;42558;52.388;13.390;2023-08-31T05:58:40;14.25;;;8.55;;
56680;SDS011;42558;52.388;13.390;2023-08-31T06:01:09;13.11;;;8.74;;
56680;SDS011;42558;52.388;13.390;2023-08-31T06:03:40;14.82;;;8.93;;
56680;SDS011;42558;52.388;13.390;2023-08-31T06:06:09;15.77;;;8.17;;
56680;SDS011;42558;52.388;13.390;2023-08-31T06:08:40;15.77;;;9.12;;
56680;SDS011;42558;52.388;13.390;2023-08-31T06:11:12;12.92;;;7.60;;
56680;SDS011;42558;52.388;13.390;2023-08-31T06:13:43;12.92;;;7.79;;
56680;SDS011;42558;52.388;13.390;2023-08-31T06:16:13;14.44;;;8.93;;
56680;SDS011;42558;52.388;13.390;2023-08-31T06:18:41;14.63;;;8.93;;
56680;SDS011;42558;52.388;13.390;2023-08-31T06:21:10;17.67;;;8.36;;
56680;SDS011;42558;52.388;13.390;2023-08-31T06:23:38;13.11;;;8.36;;
56680;SDS011;42558;52.388;13.390;2023-08-31T06:26:07;14.82;;;8.93;;
56680;SDS011;42558;52.388;13.390;2023-08-31T06:28:35;15.96;;;8.93;;
56680;SDS011;42558;52.388;13.390;2023-08-31T06:31:03;14.63;;;8.17;;
56680;SDS011;42558;52.388;13.390;2023-08-31T06:33:32;12.92;;;8.74;;
56680;SDS011;42558;52.388;13.390;2023-08-31T06:36:00;16.53;;;8.55;;
56680;SDS011;42558;52.388;13.390;2023-08-31T06:38:29;13.68;;;7.98;;
56680;SDS011;42558;52.388;13.390;2023-08-31T06:40:57;12.35;;;8.74;;
56680;SDS011;42558;52.388;13.390;2023-08-31T06:43:28;15.77;;;9.31;;
56680;SDS011;42558;52.388;13.390;2023-08-31T06:45:57;14.44;;;8.93;;
56680;SDS011;42558;52.388;13.390;2023-08-31T06:48:47;13.68;;;8.17;;
56680;SDS011;42558;52.388;13.390;2023-08-31T06:51:18;15.77;;;8.17;;
56680;SDS011;42558;52.388;13.390;2023-08-31T06:53:49;14.44;;;10.07;;
56680;SDS011;42558;52.388;13.390;2023-08-31T06:56:18;15.20;;;9.12;;
56680;SDS011;42558;52.388;13.390;2023-08-31T06:58:46;16.91;;;9.69;;
56680;SDS011;42558;52.388;13.390;2023-08-31T07:01:15;14.06;;;9.69;;
56680;SDS011;42558;52.388;13.390;2023-08-31T07:03:43;15.20;;;9.50;;
56680;SDS011;42558;52.388;13.390;2023-08-31T07:06:12;17.29;;;10.07;;
56680;SDS011;42558;52.388;13.390;2023-08-31T07:08:40;15.58;;;9.69;;
56680;SDS011;42558;52.388;13.390;2023-08-31T07:11:08;16.91;;;9.69;;
56680;SDS011;42558;52.388;13.390;2023-08-31T07:13:37;16.72;;;9.69;;
56680;SDS011;42558;52.388;13.390;2023-08-31T07:16:05;17.48;;;10.07;;
56680;SDS011;42558;52.388;13.390;2023-08-31T07:18:36;14.82;;;10.07;;
56680;SDS011;42558;52.388;13.390;2023-08-31T07:21:06;15.58;;;10.64;;
56680;SDS011;42558;52.388;13.390;2023-08-31T07:23:40;16.34;;;10.26;;
56680;SDS011;42558;52.388;13.390;2023-08-31T07:26:10;16.34;;;9.88;;
56680;SDS011;42558;52.388;13.390;2023-08-31T07:28:40;16.72;;;9.31;;
56680;SDS011;42558;52.388;13.390;2023-08-31T07:31:10;13.87;;;9.31;;
56680;SDS011;42558;52.388;13.390;2023-08-31T07:33:40;16.53;;;9.88;;
56680;SDS011;42558;52.388;13.390;2023-08-31T07:36:10;16.53;;;10.26;;
56680;SDS011;42558;52.388;13.390;2023-08-31T07:38:40;19.76;;;11.40;;
56680;SDS011;42558;52.388;13.390;2023-08-31T07:41:10;18.05;;;9.31;;
56680;SDS011;42558;52.388;13.390;2023-08-31T07:43:40;13.68;;;8.93;;
56680;SDS011;42558;52.388;13.390;2023-08-31T07:46:23;15.39;;;9.69;;
56680;SDS011;42558;52.388;13.390;2023-08-31T07:48:53;14.82;;;10.07;;
56680;SDS011;42558;52.388;13.390;2023-08-31T07:51:23;17.48;;;10.64;;
56680;SDS011;42558;52.388;13.390;2023-08-31T07:53:53;15.96;;;10.07;;
56680;SDS011;42558;52.388;13.390;2023-08-31T07:56:23;16.15;;;9.88;;
56680;SDS011;42558;52.388;13.390;2023-08-31T07:58:53;13.30;;;9.31;;
56680;SDS011;42558;52.388;13.390;2023-08-31T08:01:23;17.29;;;10.45;;
56680;SDS011;42558;52.388;13.390;2023-08-31T08:03:53;11.59;;;8.55;;
56680;SDS011;42558;52.388;13.390;2023-08-31T08:06:23;19.00;;;9.88;;
56680;SDS011;42558;52.388;13.390;2023-08-31T08:08:53;17.48;;;9.88;;
56680;SDS011;42558;52.388;13.390;2023-08-31T08:11:23;15.58;;;9.31;;
56680;SDS011;42558;52.388;13.390;2023-08-31T08:13:53;15.39;;;9.12;;
56680;SDS011;42558;52.388;13.390;2023-08-31T08:16:23;12.73;;;8.74;;
56680;SDS011;42558;52.388;13.390;2023-08-31T08:18:53;13.49;;;8.93;;
56680;SDS011;42558;52.388;13.390;2023-08-31T08:21:23;12.16;;;7.79;;
56680;SDS011;42558;52.388;13.390;2023-08-31T08:23:53;10.64;;;7.22;;
56680;SDS011;42558;52.388;13.390;2023-08-31T08:26:23;14.06;;;7.79;;
56680;SDS011;42558;52.388;13.390;2023-08-31T08:28:52;9.50;;;6.46;;
56680;SDS011;42558;52.388;13.390;2023-08-31T08:31:22;10.64;;;6.08;;
56680;SDS011;42558;52.388;13.390;2023-08-31T08:33:54;13.30;;;5.70;;
56680;SDS011;42558;52.388;13.390;2023-08-31T08:36:24;13.11;;;5.89;;
56680;SDS011;42558;52.388;13.390;2023-08-31T08:38:54;9.12;;;5.32;;
56680;SDS011;42558;52.388;13.390;2023-08-31T08:41:24;13.87;;;5.51;;
56680;SDS011;42558;52.388;13.390;2023-08-31T08:43:56;12.73;;;5.70;;
56680;SDS011;42558;52.388;13.390;2023-08-31T08:46:31;9.12;;;4.94;;
56680;SDS011;42558;52.388;13.390;2023-08-31T08:49:03;10.83;;;4.56;;
56680;SDS011;42558;52.388;13.390;2023-08-31T08:51:35;8.93;;;4.56;;
56680;SDS011;42558;52.388;13.390;2023-08-31T08:54:05;11.02;;;4.56;;
56680;SDS011;42558;52.388;13.390;2023-08-31T08:56:35;7.03;;;4.37;;
56680;SDS011;42558;52.388;13.390;2023-08-31T08:59:05;9.31;;;3.99;;
56680;SDS011;42558;52.388;13.390;2023-08-31T09:01:35;8.93;;;3.80;;
56680;SDS011;42558;52.388;13.390;2023-08-31T09:04:08;12.16;;;3.99;;
56680;SDS011;42558;52.388;13.390;2023-08-31T09:06:39;9.88;;;3.80;;
56680;SDS011;42558;52.388;13.390;2023-08-31T09:09:10;9.50;;;3.80;;
56680;SDS011;42558;52.388;13.390;2023-08-31T09:11:40;9.12;;;3.61;;
56680;SDS011;42558;52.388;13.390;2023-08-31T09:14:17;7.41;;;3.42;;
56680;SDS011;42558;52.388;13.390;2023-08-31T09:16:50;7.03;;;3.61;;
56680;SDS011;42558;52.388;13.390;2023-08-31T09:19:25;9.50;;;3.23;;
56680;SDS011;42558;52.388;13.390;2023-08-31T09:21:57;12.92;;;3.61;;
56680;SDS011;42558;52.388;13.390;2023-08-31T09:24:27;8.74;;;3.99;;
56680;SDS011;42558;52.388;13.390;2023-08-31T09:26:57;9.12;;;3.04;;
56680;SDS011;42558;52.388;13.390;2023-08-31T09:29:28;9.12;;;3.61;;
56680;SDS011;42558;52.388;13.390;2023-08-31T09:31:58;8.17;;;2.85;;
56680;SDS011;42558;52.388;13.390;2023-08-31T09:34:34;7.98;;;2.47;;
56680;SDS011;42558;52.388;13.390;2023-08-31T09:37:06;10.64;;;2.85;;
56680;SDS011;42558;52.388;13.390;2023-08-31T09:39:42;9.50;;;3.04;;
56680;SDS011;42558;52.388;13.390;2023-08-31T09:42:12;7.60;;;3.23;;
56680;SDS011;42558;52.388;13.390;2023-08-31T09:44:45;6.46;;;3.42;;
56680;SDS011;42558;52.388;13.390;2023-08-31T09:47:19;8.55;;;3.61;;
56680;SDS011;42558;52.388;13.390;2023-08-31T09:49:49;9.69;;;2.66;;
56680;SDS011;42558;52.388;13.390;2023-08-31T09:52:20;8.74;;;2.28;;
56680;SDS011;42558;52.388;13.390;2023-08-31T09:54:51;6.84;;;2.66;;
56680;SDS011;42558;52.388;13.390;2023-08-31T09:57:24;8.74;;;2.85;;
56680;SDS011;42558;52.388;13.390;2023-08-31T10:00:14;8.93;;;2.47;;
56680;SDS011;42558;52.388;13.390;2023-08-31T10:02:45;6.84;;;2.28;;
56680;SDS011;42558;52.388;13.390;2023-08-31T10:05:17;8.55;;;2.66;;
56680;SDS011;42558;52.388;13.390;2023-08-31T10:07:50;8.17;;;2.47;;
56680;SDS011;42558;52.388;13.390;2023-08-31T10:10:21;11.02;;;2.85;;
56680;SDS011;42558;52.388;13.390;2023-08-31T10:12:53;7.79;;;2.66;;
56680;SDS011;42558;52.388;13.390;2023-08-31T10:15:26;7.22;;;2.85;;
56680;SDS011;42558;52.388;13.390;2023-08-31T10:18:06;7.41;;;2.66;;
56680;SDS011;42558;52.388;13.390;2023-08-31T10:20:37;9.69;;;2.47;;
56680;SDS011;42558;52.388;13.390;2023-08-31T10:23:12;6.27;;;2.09;;
56680;SDS011;42558;52.388;13.390;2023-08-31T10:28:20;6.84;;;1.90;;
56680;SDS011;42558;52.388;13.390;2023-08-31T10:31:09;7.03;;;1.90;;
56680;SDS011;42558;52.388;13.390;2023-08-31T10:34:02;7.98;;;2.28;;
56680;SDS011;42558;52.388;13.390;2023-08-31T10:41:57;7.41;;;2.28;;
56680;SDS011;42558;52.388;13.390;2023-08-31T10:44:34;12.73;;;2.09;;
56680;SDS011;42558;52.388;13.390;2023-08-31T10:47:05;15.20;;;3.23;;
56680;SDS011;42558;52.388;13.390;2023-08-31T10:49:35;9.12;;;2.66;;
56680;SDS011;42558;52.388;13.390;2023-08-31T10:52:18;6.27;;;2.28;;
56680;SDS011;42558;52.388;13.390;2023-08-31T10:55:09;8.74;;;2.28;;
56680;SDS011;42558;52.388;13.390;2023-08-31T10:57:40;6.84;;;2.47;;
56680;SDS011;42558;52.388;13.390;2023-08-31T11:00:12;7.41;;;2.09;;
56680;SDS011;42558;52.388;13.390;2023-08-31T11:02:44;11.78;;;3.23;;
56680;SDS011;42558;52.388;13.390;2023-08-31T11:05:15;6.46;;;2.47;;
56680;SDS011;42558;52.388;13.390;2023-08-31T11:07:47;6.08;;;2.66;;
56680;SDS011;42558;52.388;13.390;2023-08-31T11:10:21;7.22;;;2.66;;
56680;SDS011;42558;52.388;13.390;2023-08-31T11:12:55;5.89;;;2.66;;
56680;SDS011;42558;52.388;13.390;2023-08-31T11:15:26;6.84;;;2.47;;
56680;SDS011;42558;52.388;13.390;2023-08-31T11:17:56;6.27;;;2.85;;
56680;SDS011;42558;52.388;13.390;2023-08-31T11:20:24;5.89;;;2.66;;
56680;SDS011;42558;52.388;13.390;2023-08-31T11:22:56;7.98;;;2.66;;
56680;SDS011;42558;52.388;13.390;2023-08-31T11:25:30;7.41;;;2.85;;
56680;SDS011;42558;52.388;13.390;2023-08-31T11:28:02;6.84;;;2.85;;
56680;SDS011;42558;52.388;13.390;2023-08-31T11:30:36;7.03;;;3.23;;
56680;SDS011;42558;52.388;13.390;2023-08-31T11:33:06;10.45;;;2.85;;
56680;SDS011;42558;52.388;13.390;2023-08-31T11:35:39;7.41;;;2.66;;
56680;SDS011;42558;52.388;13.390;2023-08-31T11:38:09;8.55;;;2.85;;
56680;SDS011;42558;52.388;13.390;2023-08-31T11:40:37;8.93;;;3.61;;
56680;SDS011;42558;52.388;13.390;2023-08-31T11:43:05;8.36;;;3.23;;
56680;SDS011;42558;52.388;13.390;2023-08-31T11:45:38;7.22;;;3.04;;
56680;SDS011;42558;52.388;13.390;2023-08-31T11:48:08;8.55;;;3.04;;
56680;SDS011;42558;52.388;13.390;2023-08-31T11:50:37;5.32;;;2.85;;
56680;SDS011;42558;52.388;13.390;2023-08-31T11:53:09;6.27;;;3.04;;
56680;SDS011;42558;52.388;13.390;2023-08-31T11:55:49;6.65;;;3.23;;
56680;SDS011;42558;52.388;13.390;2023-08-31T11:58:25;6.65;;;3.61;;
56680;SDS011;42558;52.388;13.390;2023-08-31T12:00:57;7.79;;;3.23;;
56680;SDS011;42558;52.388;13.390;2023-08-31T12:03:42;7.98;;;3.23;;
56680;SDS011;42558;52.388;13.390;2023-08-31T12:06:19;7.03;;;3.04;;
56680;SDS011;42558;52.388;13.390;2023-08-31T12:08:49;6.65;;;3.23;;
56680;SDS011;42558;52.388;13.390;2023-08-31T12:11:20;8.55;;;3.23;;
56680;SDS011;42558;52.388;13.390;2023-08-31T12:13:50;5.89;;;2.85;;
56680;SDS011;42558;52.388;13.390;2023-08-31T12:16:20;6.46;;;2.85;;
56680;SDS011;42558;52.388;13.390;2023-08-31T12:18:50;7.22;;;3.04;;
56680;SDS011;42558;52.388;13.390;2023-08-31T12:21:21;7.79;;;2.85;;
56680;SDS011;42558;52.388;13.390;2023-08-31T12:23:51;6.84;;;3.04;;
56680;SDS011;42558;52.388;13.390;2023-08-31T12:26:20;7.79;;;3.04;;
56680;SDS011;42558;52.388;13.390;2023-08-31T12:28:50;5.70;;;2.85;;
56680;SDS011;42558;52.388;13.390;2023-08-31T12:31:22;6.27;;;3.04;;
56680;SDS011;42558;52.388;13.390;2023-08-31T12:33:53;5.70;;;3.04;;
56680;SDS011;42558;52.388;13.390;2023-08-31T12:36:22;7.41;;;2.85;;
56680;SDS011;42558;52.388;13.390;2023-08-31T12:38:52;6.46;;;2.85;;
56680;SDS011;42558;52.388;13.390;2023-08-31T12:41:22;7.03;;;2.47;;
56680;SDS011;42558;52.388;13.390;2023-08-31T12:43:53;6.46;;;2.85;;
56680;SDS011;42558;52.388;13.390;2023-08-31T12:46:24;6.46;;;2.28;;
56680;SDS011;42558;52.388;13.390;2023-08-31T12:48:55;6.27;;;2.66;;
56680;SDS011;42558;52.388;13.390;2023-08-31T12:51:25;6.08;;;2.85;;
56680;SDS011;42558;52.388;13.390;2023-08-31T12:53:56;5.89;;;3.04;;
56680;SDS011;42558;52.388;13.390;2023-08-31T12:56:27;7.22;;;2.66;;
56680;SDS011;42558;52.388;13.390;2023-08-31T12:58:57;6.27;;;2.85;;
56680;SDS011;42558;52.388;13.390;2023-08-31T13:01:27;5.89;;;2.66;;
56680;SDS011;42558;52.388;13.390;2023-08-31T13:03:57;7.79;;;3.04;;
56680;SDS011;42558;52.388;13.390;2023-08-31T13:06:26;5.70;;;2.47;;
56680;SDS011;42558;52.388;13.390;2023-08-31T13:08:56;5.70;;;2.85;;
56680;SDS011;42558;52.388;13.390;2023-08-31T13:11:26;5.51;;;2.66;;
56680;SDS011;42558;52.388;13.390;2023-08-31T13:13:56;6.08;;;2.47;;
56680;SDS011;42558;52.388;13.390;2023-08-31T13:16:26;5.89;;;2.66;;
56680;SDS011;42558;52.388;13.390;2023-08-31T13:18:56;6.65;;;2.85;;
56680;SDS011;42558;52.388;13.390;2023-08-31T13:21:26;5.70;;;2.28;;
56680;SDS011;42558;52.388;13.390;2023-08-31T13:23:56;5.89;;;2.66;;
56680;SDS011;42558;52.388;13.390;2023-08-31T13:26:26;5.51;;;2.85;;
56680;SDS011;42558;52.388;13.390;2023-08-31T13:28:56;6.46;;;2.47;;
56680;SDS011;42558;52.388;13.390;2023-08-31T13:31:24;5.32;;;1.90;;
56680;SDS011;42558;52.388;13.390;2023-08-31T13:33:53;5.89;;;2.47;;
56680;SDS011;42558;52.388;13.390;2023-08-31T13:36:21;5.51;;;2.09;;
56680;SDS011;42558;52.388;13.390;2023-08-31T13:38:50;5.32;;;2.28;;
56680;SDS011;42558;52.388;13.390;2023-08-31T13:41:18;7.41;;;2.28;;
56680;SDS011;42558;52.388;13.390;2023-08-31T13:43:46;5.70;;;2.47;;
56680;SDS011;42558;52.388;13.390;2023-08-31T13:46:15;7.03;;;2.85;;
56680;SDS011;42558;52.388;13.390;2023-08-31T13:48:43;6.84;;;2.28;;
56680;SDS011;42558;52.388;13.390;2023-08-31T13:51:27;5.89;;;2.28;;
56680;SDS011;42558;52.388;13.390;2023-08-31T13:53:55;5.89;;;2.09;;
56680;SDS011;42558;52.388;13.390;2023-08-31T13:56:23;7.22;;;2.28;;
56680;SDS011;42558;52.388;13.390;2023-08-31T13:58:52;5.51;;;2.28;;
56680;SDS011;42558;52.388;13.390;2023-08-31T14:01:20;5.70;;;2.28;;
56680;SDS011;42558;52.388;13.390;2023-08-31T14:03:48;5.13;;;2.28;;
56680;SDS011;42558;52.388;13.390;2023-08-31T14:06:17;5.51;;;2.09;;
56680;SDS011;42558;52.388;13.390;2023-08-31T14:08:45;5.32;;;2.28;;
56680;SDS011;42558;52.388;13.390;2023-08-31T14:11:14;6.46;;;2.66;;
56680;SDS011;42558;52.388;13.390;2023-08-31T14:13:43;6.65;;;2.85;;
56680;SDS011;42558;52.388;13.390;2023-08-31T14:16:13;5.51;;;2.09;;
56680;SDS011;42558;52.388;13.390;2023-08-31T14:18:42;7.03;;;2.66;;
56680;SDS011;42558;52.388;13.390;2023-08-31T14:21:15;6.65;;;2.66;;
56680;SDS011;42558;52.388;13.390;2023-08-31T14:23:45;6.08;;;2.09;;
56680;SDS011;42558;52.388;13.390;2023-08-31T14:26:15;5.89;;;2.09;;
56680;SDS011;42558;52.388;13.390;2023-08-31T14:28:45;6.65;;;2.09;;
56680;SDS011;42558;52.388;13.390;2023-08-31T14:31:13;6.08;;;2.09;;
56680;SDS011;42558;52.388;13.390;2023-08-31T14:33:45;5.51;;;2.09;;
56680;SDS011;42558;52.388;13.390;2023-08-31T14:36:14;5.89;;;1.90;;
56680;SDS011;42558;52.388;13.390;2023-08-31T14:38:44;5.89;;;1.71;;
56680;SDS011;42558;52.388;13.390;2023-08-31T14:41:13;5.51;;;1.71;;
56680;SDS011;42558;52.388;13.390;2023-08-31T14:43:43;4.94;;;1.90;;
56680;SDS011;42558;52.388;13.390;2023-08-31T14:46:13;4.56;;;1.90;;
56680;SDS011;42558;52.388;13.390;2023-08-31T14:48:43;4.75;;;1.52;;
56680;SDS011;42558;52.388;13.390;2023-08-31T14:51:14;5.13;;;1.90;;
56680;SDS011;42558;52.388;13.390;2023-08-31T14:53:44;6.46;;;1.52;;
56680;SDS011;42558;52.388;13.390;2023-08-31T14:56:12;4.94;;;1.52;;
56680;SDS011;42558;52.388;13.390;2023-08-31T14:58:41;4.75;;;1.71;;
56680;SDS011;42558;52.388;13.390;2023-08-31T15:01:09;5.13;;;1.90;;
56680;SDS011;42558;52.388;13.390;2023-08-31T15:03:38;6.84;;;2.47;;
56680;SDS011;42558;52.388;13.390;2023-08-31T15:06:06;6.65;;;1.90;;
56680;SDS011;42558;52.388;13.390;2023-08-31T15:08:39;6.65;;;1.90;;